Time;durP1;ratioP1;P1;durP2;ratioP2;P2;SDS_P1;SDS_P2;PMS_P1;PMS_P2;Temp;Humidity;BMP_temperature;BMP_pressure;BME280_temperature;BME280_humidity;BME280_pressure;Samples;Min_cycle;Max_cycle;Signal;HPM_P1;HPM_P2
2021/04/26 00:01:32;;;;;;;12.57;8.10;;;2.70;99.90;;;;;;5094034;28;20027;-71
2021/04/26 00:03:58;;;;;;;13.43;8.25;;;2.60;99.90;;;;;;5093340;28;20358;-71
2021/04/26 00:06:24;;;;;;;15.02;8.68;;;2.50;99.90;;;;;;5094813;28;20027;-71
2021/04/26 00:08:49;;;;;;;14.93;8.63;;;2.50;99.90;;;;;;5095065;28;20048;-71
2021/04/26 00:11:15;;;;;;;17.35;8.40;;;2.40;99.90;;;;;;5092879;28;20084;-71
2021/04/26 00:13:40;;;;;;;16.35;8.32;;;2.40;99.90;;;;;;5094666;28;20031;-71
2021/04/26 00:16:06;;;;;;;14.40;8.63;;;2.40;99.90;;;;;;5094354;28;20095;-71
2021/04/26 00:18:32;;;;;;;12.40;7.13;;;2.40;99.90;;;;;;5094326;28;20483;-71
2021/04/26 00:20:57;;;;;;;13.57;7.90;;;2.40;99.90;;;;;;5094530;28;20020;-71
2021/04/26 00:23:23;;;;;;;12.05;7.47;;;2.40;99.90;;;;;;5093236;28;20392;-71
2021/04/26 00:25:49;;;;;;;13.85;8.07;;;2.40;99.90;;;;;;5094474;28;20024;-71
2021/04/26 00:28:14;;;;;;;12.10;8.15;;;2.40;99.90;;;;;;5094685;28;20373;-70
2021/04/26 00:30:40;;;;;;;13.13;7.85;;;2.30;99.90;;;;;;5076720;28;20032;-71
2021/04/26 00:33:05;;;;;;;23.17;8.75;;;2.30;99.90;;;;;;5094584;28;20505;-70
2021/04/26 00:35:31;;;;;;;12.48;7.50;;;2.30;99.90;;;;;;5094555;28;20477;-71
2021/04/26 00:37:57;;;;;;;14.38;7.57;;;2.20;99.90;;;;;;5094462;28;20526;-71
2021/04/26 00:40:23;;;;;;;16.23;8.73;;;2.10;99.90;;;;;;5093925;28;20020;-71
2021/04/26 00:42:50;;;;;;;14.32;7.95;;;2.10;99.90;;;;;;5093858;28;20074;-72
2021/04/26 00:45:18;;;;;;;12.43;7.88;;;2.00;99.90;;;;;;5094088;28;20019;-71
2021/04/26 00:47:45;;;;;;;16.23;7.53;;;2.00;99.90;;;;;;5094058;28;20120;-71
2021/04/26 00:50:13;;;;;;;11.75;7.18;;;2.00;99.90;;;;;;5092562;28;20053;-71
2021/04/26 00:52:38;;;;;;;13.75;6.88;;;2.00;99.90;;;;;;5094200;28;20032;-70
2021/04/26 00:55:05;;;;;;;12.32;7.22;;;2.00;99.90;;;;;;5093939;28;20073;-70
2021/04/26 00:57:31;;;;;;;13.23;7.35;;;2.00;99.90;;;;;;5094208;28;20020;-71
2021/04/26 00:59:57;;;;;;;12.93;6.82;;;2.00;99.90;;;;;;5094128;28;20373;-71
2021/04/26 01:02:24;;;;;;;14.02;6.45;;;1.90;99.90;;;;;;5093671;28;20451;-71
2021/04/26 01:04:51;;;;;;;13.25;7.05;;;1.90;99.90;;;;;;5094180;28;20436;-71
2021/04/26 01:07:17;;;;;;;13.48;7.18;;;2.00;99.90;;;;;;5092546;28;20031;-71
2021/04/26 01:09:42;;;;;;;14.02;6.85;;;1.90;99.90;;;;;;5093790;28;20036;-71
2021/04/26 01:12:36;;;;;;;11.13;6.35;;;2.00;99.90;;;;;;5092225;28;20055;-71
2021/04/26 01:15:11;;;;;;;15.90;7.10;;;1.90;99.90;;;;;;5093676;28;20074;-71
2021/04/26 01:17:45;;;;;;;13.57;6.93;;;1.80;99.90;;;;;;5093792;28;20137;-71
2021/04/26 01:20:35;;;;;;;10.60;6.82;;;1.80;99.90;;;;;;5093741;28;20419;-71
2021/04/26 01:23:30;;;;;;;12.73;7.03;;;1.80;99.90;;;;;;5093996;28;20028;-69
2021/04/26 01:25:57;;;;;;;15.20;7.82;;;1.70;99.90;;;;;;5093383;28;20067;-70
2021/04/26 01:28:37;;;;;;;13.68;7.47;;;1.70;99.90;;;;;;5093946;28;20407;-71
2021/04/26 01:31:10;;;;;;;11.52;7.03;;;1.60;99.90;;;;;;5093844;28;20074;-71
2021/04/26 01:33:49;;;;;;;17.05;7.38;;;1.60;99.90;;;;;;5093611;28;20020;-69
2021/04/26 01:36:20;;;;;;;13.15;6.63;;;1.70;99.90;;;;;;5092477;28;20119;-71
2021/04/26 01:38:47;;;;;;;12.23;6.53;;;1.80;99.90;;;;;;5075687;28;20491;-71
2021/04/26 01:41:14;;;;;;;14.32;6.28;;;2.20;99.90;;;;;;5093579;28;20032;-71
2021/04/26 01:43:42;;;;;;;13.38;7.03;;;2.30;99.90;;;;;;5093564;28;20020;-71
2021/04/26 01:46:11;;;;;;;11.63;6.00;;;2.10;99.90;;;;;;5093496;28;20016;-71
2021/04/26 01:48:42;;;;;;;11.43;6.03;;;2.20;99.90;;;;;;5093467;28;20032;-70
2021/04/26 01:51:10;;;;;;;11.18;5.70;;;2.30;99.90;;;;;;5093100;28;20020;-70
2021/04/26 01:53:38;;;;;;;10.23;6.95;;;2.10;99.90;;;;;;5093686;28;20089;-71
2021/04/26 01:56:07;;;;;;;11.75;5.97;;;2.10;99.90;;;;;;5093401;28;20026;-71
2021/04/26 01:58:32;;;;;;;10.07;5.63;;;2.10;99.90;;;;;;5093433;28;20024;-71
2021/04/26 02:00:59;;;;;;;14.95;5.93;;;2.20;99.90;;;;;;5093648;28;20035;-71
2021/04/26 02:03:26;;;;;;;9.45;5.88;;;2.10;99.90;;;;;;5093583;28;20020;-70
2021/04/26 02:05:55;;;;;;;8.80;5.93;;;2.10;99.90;;;;;;5093347;28;20024;-71
2021/04/26 02:08:21;;;;;;;9.85;6.28;;;2.00;99.90;;;;;;5093299;28;20046;-71
2021/04/26 02:10:47;;;;;;;14.35;6.28;;;1.90;99.90;;;;;;5092930;28;20052;-71
2021/04/26 02:13:18;;;;;;;10.70;6.07;;;1.80;99.90;;;;;;5093268;28;20020;-71
2021/04/26 02:15:46;;;;;;;10.57;6.47;;;1.70;99.90;;;;;;5092949;28;20052;-70
2021/04/26 02:18:12;;;;;;;11.20;5.93;;;1.70;99.90;;;;;;5093805;28;20023;-72
2021/04/26 02:20:37;;;;;;;22.05;7.07;;;1.60;99.90;;;;;;5095730;28;20028;-65
2021/04/26 02:23:04;;;;;;;10.30;6.55;;;1.50;99.90;;;;;;5096527;28;20433;-71
2021/04/26 02:25:29;;;;;;;12.00;6.60;;;1.50;99.90;;;;;;5097021;28;20031;-71
2021/04/26 02:27:55;;;;;;;15.55;7.13;;;1.40;99.90;;;;;;5096749;28;20020;-71
2021/04/26 02:30:21;;;;;;;11.63;7.35;;;1.30;99.90;;;;;;5095690;28;20461;-71
2021/04/26 02:33:05;;;;;;;11.70;6.85;;;1.30;99.90;;;;;;5096866;28;20028;-70
2021/04/26 02:35:36;;;;;;;11.35;7.15;;;1.10;99.90;;;;;;5096608;28;20048;-71
2021/04/26 02:38:05;;;;;;;11.40;7.25;;;1.20;99.90;;;;;;5096538;28;20023;-71
2021/04/26 02:40:38;;;;;;;10.15;6.88;;;1.10;99.90;;;;;;5096516;28;20020;-71
2021/04/26 02:43:04;;;;;;;9.85;6.55;;;1.20;99.90;;;;;;5096753;28;20497;-71
2021/04/26 02:45:34;;;;;;;13.07;6.78;;;1.10;99.90;;;;;;5096409;28;20024;-71
2021/04/26 02:48:00;;;;;;;13.70;7.35;;;1.10;99.90;;;;;;5095168;28;20071;-71
2021/04/26 02:50:29;;;;;;;15.05;7.13;;;1.10;99.90;;;;;;5095989;28;20108;-70
2021/04/26 02:52:55;;;;;;;13.95;7.18;;;1.00;99.90;;;;;;5096162;28;20020;-70
2021/04/26 02:55:22;;;;;;;12.10;6.93;;;0.90;99.90;;;;;;5096218;28;20065;-71
2021/04/26 02:57:50;;;;;;;11.43;6.97;;;0.80;99.90;;;;;;5096177;28;20068;-71
2021/04/26 03:00:18;;;;;;;11.50;6.43;;;0.70;99.90;;;;;;5095837;28;20016;-70
2021/04/26 03:02:45;;;;;;;13.15;7.07;;;0.70;99.90;;;;;;5094672;28;20482;-71
2021/04/26 03:05:12;;;;;;;11.15;7.15;;;0.70;99.90;;;;;;5094585;28;20385;-71
2021/04/26 03:07:39;;;;;;;16.90;8.40;;;0.70;99.90;;;;;;5095937;28;20020;-71
2021/04/26 03:10:06;;;;;;;14.70;8.15;;;0.60;99.90;;;;;;5095937;28;20031;-71
2021/04/26 03:12:34;;;;;;;13.50;7.32;;;0.50;99.90;;;;;;5096077;28;20028;-71
2021/04/26 03:15:02;;;;;;;14.68;7.75;;;0.50;99.90;;;;;;5095820;28;20020;-71
2021/04/26 03:17:28;;;;;;;11.82;8.02;;;0.50;99.90;;;;;;5095785;28;20407;-71
2021/04/26 03:19:54;;;;;;;13.65;8.30;;;0.40;99.90;;;;;;5096059;28;20020;-71
2021/04/26 03:22:22;;;;;;;14.05;8.73;;;0.40;99.90;;;;;;5095708;28;20035;-71
2021/04/26 03:24:49;;;;;;;17.13;8.88;;;0.40;99.90;;;;;;5094182;28;20392;-71
2021/04/26 03:27:16;;;;;;;17.35;8.73;;;0.30;99.90;;;;;;5095875;28;20069;-71
2021/04/26 03:29:46;;;;;;;17.10;9.43;;;0.30;99.90;;;;;;5095817;28;20044;-71
2021/04/26 03:32:13;;;;;;;15.52;8.98;;;0.20;99.90;;;;;;5077372;28;20024;-71
2021/04/26 03:34:41;;;;;;;16.80;9.43;;;0.20;99.90;;;;;;5095431;28;20108;-71
2021/04/26 03:37:12;;;;;;;13.38;9.02;;;0.10;99.90;;;;;;5095374;28;20054;-71
2021/04/26 03:39:38;;;;;;;14.52;8.55;;;0.10;99.90;;;;;;5095479;28;20024;-70
2021/04/26 03:42:04;;;;;;;15.82;9.38;;;0.00;99.90;;;;;;5095272;28;20040;-71
2021/04/26 03:44:30;;;;;;;16.10;9.18;;;-0.10;99.90;;;;;;5095327;28;20048;-70
2021/04/26 03:46:58;;;;;;;21.55;10.35;;;-0.10;99.90;;;;;;5095219;28;20020;-71
2021/04/26 03:49:24;;;;;;;19.38;9.43;;;-0.20;99.90;;;;;;5095175;28;20024;-71
2021/04/26 03:51:50;;;;;;;16.20;10.63;;;-0.20;99.90;;;;;;5095317;28;20458;-70
2021/04/26 03:54:16;;;;;;;19.05;11.23;;;-0.20;99.90;;;;;;5077599;28;20024;-71
2021/04/26 03:56:42;;;;;;;15.65;10.15;;;-0.20;99.90;;;;;;5095058;28;20020;-71
2021/04/26 03:59:08;;;;;;;17.42;9.68;;;-0.20;99.90;;;;;;5093829;28;20024;-71
2021/04/26 04:01:34;;;;;;;20.67;10.55;;;-0.30;99.90;;;;;;5095218;28;20461;-71
2021/04/26 04:04:00;;;;;;;15.93;9.82;;;-0.30;99.90;;;;;;5094932;28;20016;-71
2021/04/26 04:06:25;;;;;;;18.17;9.75;;;-0.30;99.90;;;;;;5094834;28;20039;-70
2021/04/26 04:08:51;;;;;;;17.15;9.93;;;-0.30;99.90;;;;;;5093216;28;20035;-71
2021/04/26 04:11:17;;;;;;;20.58;10.50;;;-0.30;99.90;;;;;;5093060;28;20040;-71
2021/04/26 04:13:42;;;;;;;18.52;10.18;;;-0.30;99.90;;;;;;5093914;28;20374;-71
2021/04/26 04:16:08;;;;;;;16.13;10.35;;;-0.30;99.90;;;;;;5094414;28;20388;-71
2021/04/26 04:18:34;;;;;;;19.08;10.73;;;-0.40;99.90;;;;;;5093362;28;20028;-71
2021/04/26 04:21:00;;;;;;;19.17;10.43;;;-0.40;99.90;;;;;;5094594;28;20065;-71
2021/04/26 04:23:25;;;;;;;19.75;9.93;;;-0.40;99.90;;;;;;5093821;28;20373;-71
2021/04/26 04:25:51;;;;;;;17.10;10.18;;;-0.30;99.90;;;;;;5093604;28;20035;-71
2021/04/26 04:28:17;;;;;;;25.52;10.07;;;-0.30;99.90;;;;;;5094657;28;20028;-71
2021/04/26 04:30:42;;;;;;;16.95;9.88;;;-0.20;99.90;;;;;;5093743;28;20493;-71
2021/04/26 04:33:08;;;;;;;17.38;10.05;;;-0.20;99.90;;;;;;5094813;28;20067;-71
2021/04/26 04:35:34;;;;;;;17.20;9.38;;;-0.10;99.90;;;;;;5094524;28;20483;-71
2021/04/26 04:37:59;;;;;;;23.35;10.23;;;0.00;99.90;;;;;;5094567;28;20024;-71
2021/04/26 04:40:25;;;;;;;26.27;9.77;;;0.00;99.90;;;;;;5094380;28;20035;-70
2021/04/26 04:42:50;;;;;;;14.73;8.73;;;0.20;99.90;;;;;;5093780;28;20069;-71
2021/04/26 04:45:19;;;;;;;19.27;9.82;;;0.30;99.90;;;;;;5094141;28;20103;-71
2021/04/26 04:47:45;;;;;;;19.13;9.55;;;0.50;99.90;;;;;;5076407;28;20033;-71
2021/04/26 04:50:12;;;;;;;18.35;9.32;;;0.90;99.90;;;;;;5094120;28;20104;-71
2021/04/26 04:52:38;;;;;;;19.33;8.35;;;1.30;99.90;;;;;;5093968;28;20127;-71
2021/04/26 04:55:04;;;;;;;15.98;8.70;;;1.70;99.90;;;;;;5093152;28;20517;-71
2021/04/26 04:57:29;;;;;;;16.50;8.02;;;1.80;99.90;;;;;;5093734;28;20024;-71
2021/04/26 04:59:55;;;;;;;14.43;6.95;;;2.00;99.90;;;;;;5093268;28;20523;-71
2021/04/26 05:02:20;;;;;;;11.57;7.30;;;2.30;99.90;;;;;;5093876;28;20081;-69
2021/04/26 05:04:46;;;;;;;16.65;7.20;;;2.50;99.90;;;;;;5075550;28;20024;-71
2021/04/26 05:07:11;;;;;;;14.30;7.97;;;2.70;99.90;;;;;;5093610;28;20107;-71
2021/04/26 05:09:37;;;;;;;14.75;7.68;;;2.90;99.90;;;;;;5094100;28;20035;-72
2021/04/26 05:12:03;;;;;;;14.57;6.90;;;2.90;99.90;;;;;;5092248;28;20052;-71
2021/04/26 05:14:29;;;;;;;13.85;7.65;;;3.10;99.90;;;;;;5093549;28;20024;-71
2021/04/26 05:16:56;;;;;;;14.10;7.70;;;3.30;99.90;;;;;;5092531;28;20024;-71
2021/04/26 05:19:22;;;;;;;17.92;8.13;;;3.30;99.90;;;;;;5094027;28;20023;-71
2021/04/26 05:21:47;;;;;;;17.75;8.02;;;3.40;99.90;;;;;;5094003;28;20032;-71
2021/04/26 05:24:13;;;;;;;14.73;8.13;;;3.50;99.90;;;;;;5093461;28;20020;-71
2021/04/26 05:26:39;;;;;;;13.75;7.72;;;3.80;99.90;;;;;;5093698;28;20035;-71
2021/04/26 05:29:04;;;;;;;14.43;7.43;;;4.00;99.90;;;;;;5093661;28;20040;-69
2021/04/26 05:31:30;;;;;;;17.60;7.35;;;4.50;99.90;;;;;;5092864;28;20403;-71
2021/04/26 05:33:55;;;;;;;13.70;7.07;;;4.90;99.90;;;;;;5093610;28;20421;-71
2021/04/26 05:36:21;;;;;;;15.57;6.88;;;5.30;99.90;;;;;;5092115;28;20072;-71
2021/04/26 05:38:47;;;;;;;14.02;5.80;;;5.60;99.90;;;;;;5093839;28;20488;-71
2021/04/26 05:41:12;;;;;;;13.65;5.75;;;6.80;99.90;;;;;;5093811;28;20453;-72
2021/04/26 05:43:38;;;;;;;12.60;5.80;;;8.40;99.90;;;;;;5092367;28;20028;-72
2021/04/26 05:46:03;;;;;;;10.90;5.32;;;8.90;99.90;;;;;;5093477;28;20397;-70
2021/04/26 05:48:29;;;;;;;6.90;4.93;;;9.80;99.90;;;;;;5093524;28;20105;-70
2021/04/26 05:50:55;;;;;;;10.07;5.15;;;10.70;99.90;;;;;;5093089;28;20031;-70
2021/04/26 05:53:22;;;;;;;9.65;5.57;;;11.40;99.90;;;;;;5094235;28;20025;-70
2021/04/26 05:55:47;;;;;;;9.00;5.22;;;11.30;99.90;;;;;;5095794;28;20023;-72
2021/04/26 05:58:13;;;;;;;9.05;5.50;;;11.70;98.70;;;;;;5097515;28;20024;-72
2021/04/26 06:00:39;;;;;;;10.73;4.65;;;11.50;99.30;;;;;;5097770;28;20020;-72
2021/04/26 06:03:04;;;;;;;8.93;5.35;;;12.40;96.80;;;;;;5097146;28;20122;-71
2021/04/26 06:05:30;;;;;;;12.75;5.75;;;12.70;94.60;;;;;;5096916;28;20024;-71
2021/04/26 06:07:56;;;;;;;10.88;5.97;;;12.70;93.40;;;;;;5097094;28;20028;-71
2021/04/26 06:10:22;;;;;;;14.82;6.15;;;12.80;91.00;;;;;;5097152;28;20111;-72
2021/04/26 06:12:48;;;;;;;11.85;5.63;;;12.80;88.90;;;;;;5097085;28;20106;-71
2021/04/26 06:15:13;;;;;;;7.53;5.85;;;12.80;90.10;;;;;;5097058;28;20088;-72
2021/04/26 06:17:39;;;;;;;10.30;6.00;;;12.90;87.70;;;;;;5097017;28;20020;-72
2021/04/26 06:20:05;;;;;;;9.60;5.63;;;13.00;82.00;;;;;;5097204;28;20020;-72
2021/04/26 06:22:31;;;;;;;10.38;5.60;;;12.50;82.70;;;;;;5097115;28;20039;-71
2021/04/26 06:24:57;;;;;;;9.55;5.75;;;12.30;88.20;;;;;;5096044;28;20384;-72
2021/04/26 06:27:23;;;;;;;7.82;5.28;;;12.60;87.60;;;;;;5095673;28;20016;-72
2021/04/26 06:29:48;;;;;;;12.25;7.40;;;13.10;87.20;;;;;;5095579;28;20473;-72
2021/04/26 06:32:14;;;;;;;9.05;5.45;;;13.10;79.70;;;;;;5095698;28;20035;-72
2021/04/26 06:34:39;;;;;;;9.52;5.93;;;12.40;83.10;;;;;;5095677;28;20036;-71
2021/04/26 06:37:05;;;;;;;7.07;5.55;;;12.70;81.40;;;;;;5087489;28;20043;-72
2021/04/26 06:39:31;;;;;;;10.60;6.45;;;12.40;79.40;;;;;;5076757;28;20045;-72
2021/04/26 06:41:59;;;;;;;8.45;5.18;;;12.50;82.50;;;;;;5077256;28;20082;-72
2021/04/26 06:44:25;;;;;;;9.80;6.00;;;12.50;82.80;;;;;;5082479;28;20385;-72
2021/04/26 06:46:51;;;;;;;12.07;6.80;;;12.70;83.80;;;;;;5086151;28;20028;-72
2021/04/26 06:49:19;;;;;;;7.53;5.28;;;12.50;83.20;;;;;;5093778;28;20056;-72
2021/04/26 06:51:46;;;;;;;8.55;6.40;;;12.90;82.20;;;;;;5095765;28;20020;-72
2021/04/26 06:54:12;;;;;;;10.13;6.60;;;13.10;80.00;;;;;;5092575;28;20016;-72
2021/04/26 06:56:37;;;;;;;12.15;6.85;;;13.40;77.40;;;;;;5088956;28;20020;-72
2021/04/26 06:59:03;;;;;;;10.73;5.93;;;13.80;72.20;;;;;;5095844;28;20028;-72
2021/04/26 07:01:29;;;;;;;9.90;6.20;;;14.50;70.80;;;;;;5089398;28;20121;-72
2021/04/26 07:03:54;;;;;;;11.48;6.97;;;14.40;70.90;;;;;;5095233;28;20024;-65
2021/04/26 07:06:20;;;;;;;9.77;5.82;;;14.30;65.20;;;;;;5094195;28;20365;-65
2021/04/26 07:08:45;;;;;;;11.70;6.18;;;15.00;65.80;;;;;;5094175;28;20382;-65
2021/04/26 07:11:11;;;;;;;10.55;6.15;;;15.10;63.80;;;;;;5095778;28;20079;-65
2021/04/26 07:13:36;;;;;;;8.52;6.28;;;15.30;59.60;;;;;;5095432;28;20031;-66
2021/04/26 07:16:02;;;;;;;13.50;6.13;;;14.90;59.80;;;;;;5093960;28;20029;-65
2021/04/26 07:18:28;;;;;;;10.30;6.25;;;14.80;62.70;;;;;;5094538;28;20032;-65
2021/04/26 07:20:53;;;;;;;7.32;5.55;;;15.00;58.80;;;;;;5093453;28;20036;-65
2021/04/26 07:23:19;;;;;;;9.10;5.85;;;15.50;58.00;;;;;;5074790;28;20028;-65
2021/04/26 07:25:45;;;;;;;13.32;5.57;;;14.90;56.90;;;;;;5084614;28;20028;-65
2021/04/26 07:28:11;;;;;;;10.95;5.90;;;15.70;55.10;;;;;;5077534;28;20082;-65
2021/04/26 07:30:36;;;;;;;16.02;5.68;;;15.20;55.30;;;;;;5076143;28;20017;-65
2021/04/26 07:33:02;;;;;;;10.20;5.47;;;15.40;55.00;;;;;;5085275;28;20343;-65
2021/04/26 07:35:28;;;;;;;9.65;5.47;;;15.50;54.70;;;;;;5093845;28;20024;-65
2021/04/26 07:37:53;;;;;;;14.05;6.05;;;16.50;52.50;;;;;;5094018;28;20024;-65
2021/04/26 07:40:19;;;;;;;9.30;5.32;;;16.20;51.40;;;;;;5089675;28;20062;-65
2021/04/26 07:42:45;;;;;;;8.52;6.10;;;15.70;52.80;;;;;;5094876;28;20076;-65
2021/04/26 07:45:11;;;;;;;10.57;5.68;;;15.80;52.90;;;;;;5074214;28;20050;-65
2021/04/26 07:47:37;;;;;;;10.85;5.40;;;15.40;53.80;;;;;;5091341;28;20131;-66
2021/04/26 07:50:05;;;;;;;8.50;5.35;;;15.50;53.10;;;;;;5091645;28;20020;-65
2021/04/26 07:52:30;;;;;;;10.60;5.30;;;15.70;52.00;;;;;;5094287;28;20032;-65
2021/04/26 07:54:56;;;;;;;12.32;5.20;;;15.20;50.60;;;;;;5091920;28;20034;-65
2021/04/26 07:57:21;;;;;;;11.63;4.75;;;15.10;50.80;;;;;;5093389;28;20028;-65
2021/04/26 07:59:47;;;;;;;7.65;4.22;;;15.80;50.00;;;;;;5091177;28;20052;-65
2021/04/26 08:02:12;;;;;;;8.82;4.53;;;15.80;48.30;;;;;;5093557;28;20030;-65
2021/04/26 08:04:38;;;;;;;8.38;4.50;;;16.20;47.60;;;;;;5093852;28;20102;-65
2021/04/26 08:07:03;;;;;;;10.00;5.32;;;15.90;47.50;;;;;;5093207;28;20036;-65
2021/04/26 08:09:29;;;;;;;12.35;4.50;;;16.70;46.60;;;;;;5092726;28;20032;-65
2021/04/26 08:11:54;;;;;;;8.88;4.72;;;16.80;45.00;;;;;;5092768;28;20055;-65
2021/04/26 08:14:20;;;;;;;6.93;4.00;;;16.80;45.90;;;;;;5093585;28;20024;-65
2021/04/26 08:16:46;;;;;;;9.20;4.43;;;17.30;44.70;;;;;;5092789;28;20028;-65
2021/04/26 08:19:12;;;;;;;8.23;4.15;;;17.60;44.60;;;;;;5094271;28;20056;-66
2021/04/26 08:21:38;;;;;;;7.53;3.85;;;18.20;40.20;;;;;;5072929;28;20039;-65
2021/04/26 08:24:05;;;;;;;11.82;4.18;;;17.20;42.10;;;;;;5092088;28;20031;-65
2021/04/26 08:26:30;;;;;;;11.82;4.80;;;17.40;40.90;;;;;;5092709;28;20028;-65
2021/04/26 08:28:56;;;;;;;12.23;3.50;;;17.80;40.80;;;;;;5093611;28;20529;-65
2021/04/26 08:31:21;;;;;;;5.95;3.85;;;17.40;40.10;;;;;;5092213;28;20432;-66
2021/04/26 08:33:47;;;;;;;6.35;3.80;;;17.30;40.00;;;;;;5095768;28;20105;-65
2021/04/26 08:36:13;;;;;;;7.07;3.30;;;18.30;39.50;;;;;;5095944;28;20048;-65
2021/04/26 08:38:40;;;;;;;6.57;3.30;;;18.30;36.60;;;;;;5095913;28;20012;-65
2021/04/26 08:41:12;;;;;;;5.68;3.17;;;17.90;37.90;;;;;;5093229;28;20524;-66
2021/04/26 08:43:38;;;;;;;4.95;3.38;;;18.20;37.00;;;;;;5092689;28;20028;-65
2021/04/26 08:46:04;;;;;;;3.42;2.92;;;18.10;37.50;;;;;;5093359;28;20032;-65
2021/04/26 08:48:31;;;;;;;4.80;3.13;;;18.20;38.00;;;;;;5092661;28;20377;-65
2021/04/26 08:50:56;;;;;;;6.57;4.15;;;18.40;36.10;;;;;;5093070;28;20028;-66
2021/04/26 08:53:22;;;;;;;8.07;3.60;;;18.10;36.40;;;;;;5093172;28;20069;-66
2021/04/26 08:55:48;;;;;;;9.07;4.10;;;17.30;38.10;;;;;;5092359;28;20544;-65
2021/04/26 08:58:14;;;;;;;9.10;3.70;;;17.40;39.60;;;;;;5092424;28;20060;-65
2021/04/26 09:00:39;;;;;;;4.55;3.28;;;17.70;39.40;;;;;;5093727;28;20412;-66
2021/04/26 09:03:07;;;;;;;6.05;3.33;;;18.10;36.80;;;;;;5092034;28;20027;-65
2021/04/26 09:05:36;;;;;;;7.07;3.60;;;18.40;35.00;;;;;;5092295;28;20024;-66
2021/04/26 09:08:04;;;;;;;4.20;3.58;;;18.90;35.60;;;;;;5091086;28;20016;-66
2021/04/26 09:10:41;;;;;;;5.40;3.33;;;19.90;34.30;;;;;;5091762;28;20097;-66
2021/04/26 09:13:31;;;;;;;4.88;2.75;;;18.90;33.60;;;;;;5092286;28;20051;-66
2021/04/26 09:16:01;;;;;;;4.30;2.90;;;19.60;34.70;;;;;;5084743;28;20020;-66
2021/04/26 09:18:49;;;;;;;4.03;2.90;;;19.40;32.40;;;;;;5091957;28;20040;-66
2021/04/26 09:21:19;;;;;;;5.90;3.05;;;18.40;33.50;;;;;;5092507;28;20073;-66
2021/04/26 09:23:46;;;;;;;5.43;2.80;;;17.60;33.50;;;;;;5092538;28;20396;-66
2021/04/26 09:26:28;;;;;;;3.50;3.00;;;18.30;34.00;;;;;;5090641;28;20049;-66
2021/04/26 09:29:23;;;;;;;7.03;3.20;;;19.30;33.20;;;;;;5090039;28;20107;-66
2021/04/26 09:32:15;;;;;;;4.93;2.88;;;19.70;32.70;;;;;;5097065;28;20111;-66
2021/04/26 09:34:51;;;;;;;8.53;3.23;;;20.00;33.10;;;;;;5096404;28;20024;-66
2021/04/26 09:37:25;;;;;;;4.03;3.05;;;19.30;31.90;;;;;;5095110;28;20016;-66
2021/04/26 09:40:12;;;;;;;6.10;3.30;;;19.20;33.40;;;;;;5095265;28;20024;-66
2021/04/26 09:48:21;;;;;;;4.35;3.42;;;19.10;32.40;;;;;;5110207;27;20355;-65
2021/04/26 09:51:17;;;;;;;5.45;3.78;;;20.50;31.80;;;;;;5101514;28;20035;-65
2021/04/26 09:59:02;;;;;;;4.07;3.10;;;19.50;32.00;;;;;;5110096;27;20363;-65
2021/04/26 10:01:28;;;;;;;3.47;3.03;;;19.90;32.30;;;;;;5093235;28;20466;-66
2021/04/26 10:03:55;;;;;;;6.07;3.13;;;18.70;33.00;;;;;;5100103;28;20024;-66
2021/04/26 10:06:22;;;;;;;4.32;3.10;;;19.30;32.90;;;;;;5109552;28;20107;-66
2021/04/26 10:08:50;;;;;;;4.15;3.08;;;19.60;31.70;;;;;;5101699;28;20111;-65
2021/04/26 10:11:16;;;;;;;5.15;3.28;;;19.70;32.10;;;;;;5100346;28;20035;-66
2021/04/26 10:13:43;;;;;;;4.88;3.53;;;19.80;30.80;;;;;;5097436;28;20115;-66
2021/04/26 10:16:13;;;;;;;8.10;3.15;;;20.20;32.00;;;;;;5102217;28;20024;-65
2021/04/26 10:18:41;;;;;;;5.65;3.38;;;20.70;30.70;;;;;;5088852;28;20020;-64
2021/04/26 10:24:21;;;;;;;6.15;3.15;;;19.90;30.40;;;;;;5108106;27;20398;-66
2021/04/26 10:26:58;;;;;;;6.25;3.13;;;20.40;30.90;;;;;;5103646;28;20056;-64
2021/04/26 10:29:31;;;;;;;7.45;3.17;;;20.60;30.30;;;;;;5108326;28;20020;-66
2021/04/26 10:37:31;;;;;;;2.97;2.50;;;19.90;31.70;;;;;;5045133;27;20428;-64
2021/04/26 10:42:41;;;;;;;4.40;2.92;;;20.50;29.60;;;;;;5110115;27;20113;-65
2021/04/26 10:48:10;;;;;;;3.90;3.00;;;17.70;33.80;;;;;;5109858;27;20359;-64
2021/04/26 10:50:41;;;;;;;4.38;3.20;;;16.00;36.00;;;;;;5108824;28;20097;-64
2021/04/26 10:53:09;;;;;;;4.40;2.92;;;15.20;36.00;;;;;;5109167;28;20031;-66
2021/04/26 10:58:22;;;;;;;4.13;3.30;;;15.60;37.00;;;;;;5090577;27;20157;-66
2021/04/26 11:00:49;;;;;;;4.40;3.58;;;15.90;36.70;;;;;;5080496;28;20051;-66
2021/04/26 11:06:09;;;;;;;6.95;3.22;;;15.10;38.50;;;;;;5111269;27;20363;-66
2021/04/26 11:08:41;;;;;;;5.05;3.15;;;15.20;39.60;;;;;;5109967;28;20081;-66
2021/04/26 11:11:14;;;;;;;4.70;3.53;;;15.10;38.20;;;;;;5110583;28;20027;-66
2021/04/26 11:13:47;;;;;;;4.90;3.53;;;15.40;38.30;;;;;;5111274;28;20015;-66
2021/04/26 11:16:17;;;;;;;4.87;3.50;;;14.50;38.40;;;;;;5109228;28;20023;-66
2021/04/26 11:19:06;;;;;;;5.65;3.17;;;14.10;38.80;;;;;;5110571;28;20020;-66
2021/04/26 11:32:27;;;;;;;10.70;3.78;;;15.90;34.70;;;;;;5104427;27;20367;-66
2021/04/26 11:37:33;;;;;;;6.53;3.40;;;15.40;34.50;;;;;;5108723;27;20402;-66
2021/04/26 11:39:59;;;;;;;4.47;3.22;;;15.30;35.40;;;;;;5109010;28;20024;-66
2021/04/26 11:42:28;;;;;;;6.03;3.53;;;15.50;37.10;;;;;;5110949;28;20081;-65
2021/04/26 11:44:54;;;;;;;6.03;3.40;;;15.40;36.70;;;;;;5110047;28;20081;-65
2021/04/26 11:47:21;;;;;;;5.03;3.42;;;14.80;36.80;;;;;;5110699;28;20024;-65
2021/04/26 11:49:49;;;;;;;5.22;3.22;;;15.30;38.40;;;;;;5112068;28;20020;-66
2021/04/26 11:52:17;;;;;;;4.88;3.53;;;15.60;39.00;;;;;;5090362;28;20058;-65
2021/04/26 11:54:45;;;;;;;4.93;3.30;;;15.70;38.30;;;;;;5111019;28;20028;-64
2021/04/26 11:57:18;;;;;;;7.40;3.78;;;15.50;37.40;;;;;;5109542;28;20035;-66
2021/04/26 11:59:48;;;;;;;;;;;15.40;38.40;;;;;;5109501;28;20028;-66
2021/04/26 12:02:24;;;;;;;3.80;3.33;;;14.90;39.00;;;;;;5108574;28;19960;-66
2021/04/26 12:04:49;;;;;;;10.40;3.55;;;15.00;39.70;;;;;;5104627;28;20468;-66
2021/04/26 12:07:15;;;;;;;6.20;3.63;;;15.10;40.00;;;;;;5110071;28;20028;-66
2021/04/26 12:09:44;;;;;;;5.40;3.90;;;15.00;41.00;;;;;;5108231;28;20028;-64
2021/04/26 12:12:10;;;;;;;9.23;3.78;;;15.20;39.80;;;;;;5108612;28;20032;-66
2021/04/26 12:14:36;;;;;;;8.43;4.22;;;15.40;41.30;;;;;;5109701;28;20031;-66
2021/04/26 12:17:19;;;;;;;6.85;3.50;;;15.30;40.50;;;;;;5109211;28;20465;-66
2021/04/26 12:19:47;;;;;;;5.55;3.60;;;15.70;40.50;;;;;;5107299;28;20485;-66
2021/04/26 12:22:14;;;;;;;5.82;3.75;;;15.60;39.60;;;;;;5109103;28;20037;-66
2021/04/26 12:24:41;;;;;;;4.20;3.45;;;15.70;38.20;;;;;;5108838;28;20099;-66
2021/04/26 12:27:10;;;;;;;5.65;3.15;;;15.60;38.70;;;;;;5108843;28;20034;-65
2021/04/26 12:29:36;;;;;;;5.18;3.70;;;15.50;40.00;;;;;;5109755;28;20484;-65
2021/04/26 12:32:19;;;;;;;10.13;3.80;;;15.20;39.60;;;;;;5110318;28;20032;-65
2021/04/26 12:34:54;;;;;;;4.53;3.92;;;14.90;38.90;;;;;;5108545;28;20030;-65
2021/04/26 12:37:23;;;;;;;4.95;3.60;;;14.70;40.00;;;;;;5107883;28;20124;-66
2021/04/26 12:39:49;;;;;;;6.53;4.00;;;15.00;40.40;;;;;;5109936;28;20333;-65
2021/04/26 12:42:17;;;;;;;6.18;3.75;;;15.60;40.00;;;;;;5107885;28;20031;-65
2021/04/26 12:44:44;;;;;;;5.45;3.75;;;15.20;38.70;;;;;;5109480;28;20024;-66
2021/04/26 12:47:21;;;;;;;5.95;3.38;;;15.00;39.60;;;;;;5104754;28;20480;-66
2021/04/26 12:49:48;;;;;;;5.78;3.70;;;15.00;39.50;;;;;;5095408;28;20024;-65
2021/04/26 12:52:16;;;;;;;7.95;3.67;;;15.50;39.80;;;;;;5094572;28;20103;-65
2021/04/26 12:55:05;;;;;;;5.38;3.78;;;15.50;39.00;;;;;;5095023;28;20085;-65
2021/04/26 12:57:31;;;;;;;6.40;4.30;;;15.60;38.20;;;;;;5095394;28;20388;-65
2021/04/26 12:59:56;;;;;;;10.20;4.40;;;15.50;38.90;;;;;;5094458;28;20028;-66
2021/04/26 13:02:25;;;;;;;5.55;4.03;;;15.10;40.80;;;;;;5095680;28;20020;-65
2021/04/26 13:04:51;;;;;;;5.63;3.80;;;15.00;41.50;;;;;;5061304;28;20497;-65
2021/04/26 13:07:18;;;;;;;5.82;4.00;;;15.00;42.90;;;;;;5077142;28;20035;-66
2021/04/26 13:09:44;;;;;;;10.63;4.45;;;15.00;41.50;;;;;;5094811;28;20048;-65
2021/04/26 13:12:10;;;;;;;7.03;4.72;;;14.80;40.80;;;;;;5093856;28;20029;-66
2021/04/26 13:14:36;;;;;;;8.10;4.10;;;14.90;40.90;;;;;;5095651;28;20031;-64
2021/04/26 13:17:07;;;;;;;5.53;4.28;;;15.10;40.90;;;;;;5094001;28;20111;-64
2021/04/26 13:19:37;;;;;;;9.63;4.43;;;15.30;42.40;;;;;;5085567;28;20024;-64
2021/04/26 13:22:03;;;;;;;6.13;3.83;;;14.80;41.20;;;;;;5094896;28;20459;-64
2021/04/26 13:24:34;;;;;;;7.43;4.63;;;14.90;42.90;;;;;;5094648;28;20503;-64
2021/04/26 13:27:09;;;;;;;6.55;4.10;;;14.90;42.00;;;;;;5095516;28;20050;-64
2021/04/26 13:29:40;;;;;;;6.13;3.88;;;14.90;42.30;;;;;;5092923;28;20111;-64
2021/04/26 13:32:08;;;;;;;6.72;4.30;;;15.40;43.40;;;;;;5094373;28;20035;-64
2021/04/26 13:34:37;;;;;;;6.10;4.30;;;15.60;42.30;;;;;;5094384;28;20480;-64